Time;durP1;ratioP1;P1;durP2;ratioP2;P2;SDS_P1;SDS_P2;PMS_P1;PMS_P2;Temp;Humidity;BMP_temperature;BMP_pressure;BME280_temperature;BME280_humidity;BME280_pressure;Samples;Min_cycle;Max_cycle;Signal;HPM_P1;HPM_P2
2023/01/30 00:00:32;;;;;;;68.80;37.60;;;;;;;;;;5003030;28;20176;-79
2023/01/30 00:02:58;;;;;;;65.93;38.63;;;;;;;;;;5000524;28;21480;-79
2023/01/30 00:05:24;;;;;;;66.53;36.28;;;;;;;;;;5018153;28;20482;-79
2023/01/30 00:07:50;;;;;;;73.45;38.45;;;;;;;;;;5000344;28;20033;-79
2023/01/30 00:10:17;;;;;;;61.70;34.92;;;;;;;;;;5004846;28;20100;-80
2023/01/30 00:12:43;;;;;;;69.15;35.72;;;;;;;;;;5006416;28;20107;-78
2023/01/30 00:15:10;;;;;;;64.22;35.70;;;;;;;;;;5003995;28;20042;-78
2023/01/30 00:17:36;;;;;;;66.10;34.95;;;;;;;;;;5003520;28;20057;-79
2023/01/30 00:20:03;;;;;;;67.75;34.97;;;;;;;;;;5005635;28;20037;-77
2023/01/30 00:22:29;;;;;;;63.20;35.03;;;;;;;;;;5007142;28;20065;-78
2023/01/30 00:24:55;;;;;;;61.58;33.42;;;;;;;;;;5005014;28;20069;-78
2023/01/30 00:27:21;;;;;;;62.65;34.17;;;;;;;;;;5003972;28;20100;-79
2023/01/30 00:29:48;;;;;;;63.83;34.22;;;;;;;;;;5005978;28;20030;-79
2023/01/30 00:32:14;;;;;;;55.85;32.47;;;;;;;;;;5008473;28;20371;-80
2023/01/30 00:34:40;;;;;;;65.90;32.80;;;;;;;;;;5011267;28;20029;-79
2023/01/30 00:37:07;;;;;;;66.05;32.17;;;;;;;;;;4995876;28;20050;-78
2023/01/30 00:39:33;;;;;;;54.35;30.20;;;;;;;;;;5015434;28;20022;-78
2023/01/30 00:47:31;;;;;;;52.70;27.20;;;;;;;;;;5016185;28;20049;-78
2023/01/30 00:49:57;;;;;;;50.30;26.55;;;;;;;;;;5013038;28;20529;-77
2023/01/30 00:52:23;;;;;;;46.38;26.40;;;;;;;;;;4999652;28;20080;-77
2023/01/30 00:54:51;;;;;;;51.85;25.50;;;;;;;;;;5013075;28;20021;-76
2023/01/30 00:57:17;;;;;;;49.30;24.55;;;;;;;;;;5013209;28;20022;-78
2023/01/30 00:59:43;;;;;;;44.90;21.80;;;;;;;;;;5007416;28;20045;-78
2023/01/30 01:02:11;;;;;;;38.05;19.55;;;;;;;;;;4984931;28;20034;-79
2023/01/30 01:04:42;;;;;;;32.10;17.73;;;;;;;;;;5003361;28;20040;-79
2023/01/30 01:07:09;;;;;;;30.02;14.27;;;;;;;;;;5006829;28;20022;-78
2023/01/30 01:09:35;;;;;;;27.17;13.57;;;;;;;;;;4988376;28;20034;-78
2023/01/30 01:12:05;;;;;;;35.88;15.05;;;;;;;;;;5007294;28;21455;-78
2023/01/30 01:14:31;;;;;;;27.42;13.80;;;;;;;;;;5001967;28;20135;-78
2023/01/30 01:16:58;;;;;;;33.10;13.07;;;;;;;;;;5004151;28;20025;-78
2023/01/30 01:19:25;;;;;;;34.28;13.82;;;;;;;;;;5003923;28;20076;-79
2023/01/30 01:21:52;;;;;;;39.58;13.98;;;;;;;;;;5007523;28;20585;-78
2023/01/30 01:24:18;;;;;;;35.53;12.32;;;;;;;;;;5001591;28;20409;-77
2023/01/30 01:26:45;;;;;;;30.67;12.48;;;;;;;;;;5005436;28;20471;-79
2023/01/30 01:29:14;;;;;;;28.88;11.98;;;;;;;;;;5005417;28;20034;-78
2023/01/30 01:31:41;;;;;;;30.42;12.02;;;;;;;;;;5003944;28;21366;-80
2023/01/30 01:34:07;;;;;;;46.83;12.88;;;;;;;;;;5008291;28;20030;-77
2023/01/30 01:36:33;;;;;;;29.67;11.93;;;;;;;;;;4999106;28;20066;-80
2023/01/30 01:39:00;;;;;;;29.92;12.23;;;;;;;;;;5007814;28;20045;-79
2023/01/30 01:41:26;;;;;;;31.85;12.52;;;;;;;;;;5001350;28;20072;-79
2023/01/30 01:44:05;;;;;;;34.10;11.15;;;;;;;;;;5002826;28;20072;-80
2023/01/30 01:46:43;;;;;;;34.45;11.82;;;;;;;;;;5006555;28;20041;-79
2023/01/30 01:49:33;;;;;;;36.83;11.70;;;;;;;;;;5005407;28;20022;-79
2023/01/30 01:52:04;;;;;;;33.55;11.23;;;;;;;;;;4994061;28;20038;-77
2023/01/30 01:54:30;;;;;;;;;;;;;;;;;;4997223;28;20038;-78
2023/01/30 01:56:56;;;;;;;31.80;10.07;;;;;;;;;;5009064;28;19996;-79
2023/01/30 01:59:26;;;;;;;31.15;9.63;;;;;;;;;;4995411;28;20410;-80
2023/01/30 02:01:54;;;;;;;40.22;10.85;;;;;;;;;;5012281;28;20029;-79
2023/01/30 02:05:00;;;;;;;35.67;13.00;;;;;;;;;;5009244;28;20456;-78
2023/01/30 02:07:08;;;;;;;41.75;11.93;;;;;;;;;;5011846;28;20037;-79
2023/01/30 02:09:34;;;;;;;32.08;11.98;;;;;;;;;;5011711;28;20088;-79
2023/01/30 02:12:01;;;;;;;42.38;11.18;;;;;;;;;;5016691;28;20049;-78
2023/01/30 02:14:28;;;;;;;31.33;11.70;;;;;;;;;;5012797;28;20049;-78
2023/01/30 02:16:54;;;;;;;50.88;13.77;;;;;;;;;;5012660;28;20033;-79
2023/01/30 02:19:25;;;;;;;20.60;9.50;;;;;;;;;;5007172;28;20125;-78
2023/01/30 02:22:04;;;;;;;29.00;9.98;;;;;;;;;;5010434;28;20010;-79
2023/01/30 02:25:00;;;;;;;30.45;8.50;;;;;;;;;;5004967;28;20030;-79
2023/01/30 02:27:41;;;;;;;31.67;9.73;;;;;;;;;;4983441;28;20064;-79
2023/01/30 02:30:10;;;;;;;34.35;9.45;;;;;;;;;;5003187;28;20083;-79
2023/01/30 02:32:44;;;;;;;26.45;8.57;;;;;;;;;;5004714;28;20013;-79
2023/01/30 02:35:24;;;;;;;32.47;9.00;;;;;;;;;;5001740;28;20507;-80
2023/01/30 02:38:08;;;;;;;35.20;9.60;;;;;;;;;;5015944;28;20129;-79
2023/01/30 02:40:43;;;;;;;36.13;9.27;;;;;;;;;;4999211;28;20084;-79
2023/01/30 02:43:25;;;;;;;31.77;9.82;;;;;;;;;;4979198;28;20069;-79
2023/01/30 02:46:02;;;;;;;31.73;9.07;;;;;;;;;;4998398;28;20198;-79
2023/01/30 02:48:47;;;;;;;30.10;7.70;;;;;;;;;;4999553;28;20068;-80
2023/01/30 02:51:19;;;;;;;34.58;9.85;;;;;;;;;;5000676;28;20120;-80
2023/01/30 02:53:46;;;;;;;30.50;9.07;;;;;;;;;;4995600;28;20041;-80
2023/01/30 02:56:12;;;;;;;34.83;8.88;;;;;;;;;;4986920;28;20022;-80
2023/01/30 02:58:42;;;;;;;33.58;8.05;;;;;;;;;;5002467;28;20038;-80
2023/01/30 03:01:20;;;;;;;37.50;7.68;;;;;;;;;;4998927;28;20511;-80
2023/01/30 03:03:50;;;;;;;26.95;7.07;;;;;;;;;;5003681;28;20050;-80
2023/01/30 03:06:25;;;;;;;23.80;8.63;;;;;;;;;;5004289;28;20033;-80
2023/01/30 03:08:54;;;;;;;32.63;7.90;;;;;;;;;;4996625;28;20022;-78
2023/01/30 03:11:23;;;;;;;32.63;8.07;;;;;;;;;;4999339;28;20090;-79
2023/01/30 03:13:55;;;;;;;30.05;8.10;;;;;;;;;;5003439;28;20133;-79
2023/01/30 03:16:32;;;;;;;34.05;8.75;;;;;;;;;;5007926;28;20038;-79
2023/01/30 03:19:02;;;;;;;36.83;8.20;;;;;;;;;;5001678;28;20038;-80
2023/01/30 03:21:34;;;;;;;28.65;8.15;;;;;;;;;;5006097;28;20566;-78
2023/01/30 03:24:00;;;;;;;20.90;6.90;;;;;;;;;;5017031;28;20053;-80
2023/01/30 03:26:29;;;;;;;37.28;7.82;;;;;;;;;;5020192;28;20045;-78
2023/01/30 03:28:55;;;;;;;34.72;7.15;;;;;;;;;;5011594;28;20180;-79
2023/01/30 03:31:22;;;;;;;33.78;7.00;;;;;;;;;;5002690;28;20917;-79
2023/01/30 03:33:48;;;;;;;31.42;7.47;;;;;;;;;;5014671;28;20034;-78
2023/01/30 03:36:14;;;;;;;22.92;7.50;;;;;;;;;;4989043;28;20053;-81
2023/01/30 03:38:40;;;;;;;28.63;7.18;;;;;;;;;;5004856;28;20034;-79
2023/01/30 03:41:06;;;;;;;20.67;7.28;;;;;;;;;;5006071;28;20026;-80
2023/01/30 03:43:33;;;;;;;26.67;6.13;;;;;;;;;;5006712;28;20032;-79
2023/01/30 03:46:02;;;;;;;33.85;7.93;;;;;;;;;;5003632;28;20887;-80
2023/01/30 03:48:28;;;;;;;31.85;6.25;;;;;;;;;;4974882;28;20541;-81
2023/01/30 03:50:56;;;;;;;34.22;7.18;;;;;;;;;;5005779;28;20034;-80
2023/01/30 03:53:22;;;;;;;25.00;5.63;;;;;;;;;;4991610;28;20041;-80
2023/01/30 03:55:49;;;;;;;28.33;7.93;;;;;;;;;;4990682;28;20479;-80
2023/01/30 03:58:20;;;;;;;28.13;7.38;;;;;;;;;;4987964;28;20126;-80
2023/01/30 04:00:46;;;;;;;26.08;5.88;;;;;;;;;;5002632;28;20068;-80
2023/01/30 04:03:14;;;;;;;27.92;6.57;;;;;;;;;;5003135;28;20147;-78
2023/01/30 04:05:42;;;;;;;31.73;6.25;;;;;;;;;;5000803;28;20044;-79
2023/01/30 04:08:09;;;;;;;28.90;6.35;;;;;;;;;;5006675;28;20026;-79
2023/01/30 04:10:35;;;;;;;35.50;6.22;;;;;;;;;;5001765;28;20388;-79
2023/01/30 04:13:02;;;;;;;34.05;7.15;;;;;;;;;;5000988;28;20117;-79
2023/01/30 04:15:30;;;;;;;25.00;7.15;;;;;;;;;;5004554;28;20041;-80
2023/01/30 04:18:15;;;;;;;26.02;5.50;;;;;;;;;;5006335;28;20045;-80
2023/01/30 04:20:56;;;;;;;27.67;5.53;;;;;;;;;;5003703;28;20037;-79
2023/01/30 04:23:29;;;;;;;31.23;5.20;;;;;;;;;;5008086;28;20037;-79
2023/01/30 04:25:56;;;;;;;27.20;5.75;;;;;;;;;;4995209;28;20042;-80
2023/01/30 04:28:24;;;;;;;31.83;5.85;;;;;;;;;;5002276;28;20026;-79
2023/01/30 04:30:52;;;;;;;29.35;5.60;;;;;;;;;;5004803;28;20034;-79
2023/01/30 04:33:48;;;;;;;17.75;4.43;;;;;;;;;;4998370;28;20030;-79
2023/01/30 04:36:15;;;;;;;24.35;5.15;;;;;;;;;;5010304;28;20061;-79
2023/01/30 04:38:43;;;;;;;26.00;5.32;;;;;;;;;;5012038;28;20032;-79
2023/01/30 04:41:09;;;;;;;19.13;5.13;;;;;;;;;;4997515;28;20030;-79
2023/01/30 04:43:39;;;;;;;22.42;5.63;;;;;;;;;;4997868;28;20058;-75
2023/01/30 04:46:11;;;;;;;34.55;5.93;;;;;;;;;;5017937;28;20120;-81
2023/01/30 04:48:38;;;;;;;20.63;4.78;;;;;;;;;;5012840;28;20038;-79
2023/01/30 04:51:04;;;;;;;25.10;5.72;;;;;;;;;;5014770;28;20034;-79
2023/01/30 04:53:31;;;;;;;20.33;5.78;;;;;;;;;;5004603;28;20026;-77
2023/01/30 04:55:58;;;;;;;19.95;4.40;;;;;;;;;;4973006;28;20125;-80
2023/01/30 04:58:24;;;;;;;32.35;5.75;;;;;;;;;;4989179;28;20049;-79
2023/01/30 05:00:50;;;;;;;14.93;5.05;;;;;;;;;;4987391;28;20105;-79
2023/01/30 05:03:16;;;;;;;24.13;4.88;;;;;;;;;;5002632;28;20488;-78
2023/01/30 05:05:45;;;;;;;23.08;4.78;;;;;;;;;;5019586;28;20058;-80
2023/01/30 05:08:11;;;;;;;16.90;4.45;;;;;;;;;;5005984;28;20032;-79
2023/01/30 05:10:38;;;;;;;19.10;4.07;;;;;;;;;;4988618;28;20510;-80
2023/01/30 05:13:05;;;;;;;23.05;4.47;;;;;;;;;;5007413;28;20040;-80
2023/01/30 05:15:31;;;;;;;21.67;4.30;;;;;;;;;;5000989;28;20026;-80
2023/01/30 05:17:58;;;;;;;24.08;5.85;;;;;;;;;;5004656;28;20088;-79
2023/01/30 05:20:25;;;;;;;17.35;4.95;;;;;;;;;;5007334;28;20046;-79
2023/01/30 05:22:51;;;;;;;22.55;5.38;;;;;;;;;;5007479;28;20100;-79
2023/01/30 05:25:17;;;;;;;26.60;4.60;;;;;;;;;;5007697;28;20029;-79
2023/01/30 05:27:43;;;;;;;24.30;4.28;;;;;;;;;;5005972;28;20030;-79
2023/01/30 05:30:10;;;;;;;21.83;4.53;;;;;;;;;;5021359;28;20061;-79
2023/01/30 05:32:37;;;;;;;28.77;5.40;;;;;;;;;;5005684;28;20026;-78
2023/01/30 05:35:03;;;;;;;21.90;4.28;;;;;;;;;;5006140;28;20100;-78
2023/01/30 05:37:29;;;;;;;30.05;5.80;;;;;;;;;;5007177;28;20025;-78
2023/01/30 05:39:56;;;;;;;22.45;4.57;;;;;;;;;;5006450;28;20034;-79
2023/01/30 05:42:22;;;;;;;22.17;4.63;;;;;;;;;;5004664;28;20045;-78
2023/01/30 05:44:48;;;;;;;25.23;4.35;;;;;;;;;;5006036;28;20038;-78
2023/01/30 05:47:14;;;;;;;31.73;5.57;;;;;;;;;;5003365;28;20049;-77
2023/01/30 05:49:40;;;;;;;30.70;5.93;;;;;;;;;;5007881;28;20068;-78
2023/01/30 05:52:06;;;;;;;31.80;5.47;;;;;;;;;;5003722;28;20033;-78
2023/01/30 05:54:33;;;;;;;37.13;5.75;;;;;;;;;;5006008;28;20107;-77
2023/01/30 05:56:59;;;;;;;32.40;5.18;;;;;;;;;;5012303;28;20049;-78
2023/01/30 05:59:25;;;;;;;27.92;5.05;;;;;;;;;;4998010;28;20536;-78
2023/01/30 06:01:52;;;;;;;30.60;4.72;;;;;;;;;;5014829;28;20022;-77
2023/01/30 06:04:18;;;;;;;31.92;5.20;;;;;;;;;;5014113;28;20056;-78
2023/01/30 06:06:44;;;;;;;34.30;5.10;;;;;;;;;;5013017;28;20034;-78
2023/01/30 06:09:10;;;;;;;26.55;3.92;;;;;;;;;;5018729;28;20014;-79
2023/01/30 06:11:37;;;;;;;30.95;4.43;;;;;;;;;;5016339;28;20064;-78
2023/01/30 06:14:03;;;;;;;33.83;5.38;;;;;;;;;;5010966;28;20033;-78
2023/01/30 06:16:29;;;;;;;32.83;4.22;;;;;;;;;;5005431;28;20034;-79
2023/01/30 06:18:55;;;;;;;27.10;5.47;;;;;;;;;;5014385;28;20178;-76
2023/01/30 06:21:27;;;;;;;31.95;4.60;;;;;;;;;;5008975;28;20046;-78
2023/01/30 06:23:53;;;;;;;36.17;7.57;;;;;;;;;;5014356;28;20060;-79
2023/01/30 06:26:19;;;;;;;41.45;6.90;;;;;;;;;;5014169;28;20068;-79
2023/01/30 06:28:45;;;;;;;29.10;5.13;;;;;;;;;;5013625;28;20045;-76
2023/01/30 06:31:12;;;;;;;44.53;6.22;;;;;;;;;;5008134;28;20022;-76
2023/01/30 06:33:38;;;;;;;27.13;4.60;;;;;;;;;;5013276;28;20101;-78
2023/01/30 06:36:05;;;;;;;34.15;4.32;;;;;;;;;;5013042;28;20522;-77
2023/01/30 06:38:31;;;;;;;38.67;5.63;;;;;;;;;;5013003;28;20120;-76
2023/01/30 06:40:57;;;;;;;31.13;5.05;;;;;;;;;;5013540;28;20052;-77
2023/01/30 06:43:24;;;;;;;44.63;7.25;;;;;;;;;;5013739;28;20391;-76
2023/01/30 06:45:50;;;;;;;35.22;5.38;;;;;;;;;;5012409;28;20117;-78
2023/01/30 06:48:16;;;;;;;43.38;7.03;;;;;;;;;;4984898;28;20405;-77
2023/01/30 06:50:42;;;;;;;43.05;6.60;;;;;;;;;;5011402;28;20088;-76
2023/01/30 06:53:09;;;;;;;39.97;5.40;;;;;;;;;;5015272;28;20105;-78
2023/01/30 06:55:37;;;;;;;40.22;5.50;;;;;;;;;;5009382;28;20126;-78
2023/01/30 06:58:07;;;;;;;33.33;4.65;;;;;;;;;;4991549;28;20038;-78
2023/01/30 07:00:34;;;;;;;36.13;6.13;;;;;;;;;;5006861;28;20116;-76
2023/01/30 07:03:01;;;;;;;34.88;5.45;;;;;;;;;;5010528;28;20060;-76
2023/01/30 07:05:27;;;;;;;38.55;6.18;;;;;;;;;;5005902;28;20448;-77
2023/01/30 07:07:54;;;;;;;31.25;4.57;;;;;;;;;;4988280;28;20124;-78
2023/01/30 07:10:20;;;;;;;32.10;4.82;;;;;;;;;;5005213;28;20109;-77
2023/01/30 07:12:47;;;;;;;27.45;5.47;;;;;;;;;;4998587;28;20030;-78
2023/01/30 07:15:13;;;;;;;31.50;4.20;;;;;;;;;;5003454;28;20030;-77
2023/01/30 07:17:40;;;;;;;28.10;5.18;;;;;;;;;;5015166;28;20059;-78
2023/01/30 07:20:07;;;;;;;33.13;5.57;;;;;;;;;;5015382;28;20042;-78
2023/01/30 07:22:33;;;;;;;40.70;4.82;;;;;;;;;;5015774;28;20033;-76
2023/01/30 07:24:59;;;;;;;32.80;6.20;;;;;;;;;;5023934;28;20037;-77
2023/01/30 07:27:25;;;;;;;32.05;5.90;;;;;;;;;;5023978;28;20026;-76
2023/01/30 07:29:51;;;;;;;43.85;4.78;;;;;;;;;;5020775;28;20048;-77
2023/01/30 07:32:18;;;;;;;31.52;4.80;;;;;;;;;;5021004;28;20041;-79
2023/01/30 07:34:45;;;;;;;34.83;5.93;;;;;;;;;;5023254;28;20037;-76
2023/01/30 07:37:11;;;;;;;44.58;4.93;;;;;;;;;;5022144;28;20041;-79
2023/01/30 07:39:37;;;;;;;28.15;5.55;;;;;;;;;;5022821;28;20030;-77
2023/01/30 07:42:04;;;;;;;31.17;4.53;;;;;;;;;;5004700;28;20065;-77
2023/01/30 07:44:30;;;;;;;34.80;4.72;;;;;;;;;;5022769;28;20046;-77
2023/01/30 07:46:56;;;;;;;35.05;4.75;;;;;;;;;;5021299;28;20041;-77
2023/01/30 07:49:22;;;;;;;34.85;4.53;;;;;;;;;;5023581;28;20037;-78
2023/01/30 07:51:48;;;;;;;35.40;5.60;;;;;;;;;;5023285;28;20113;-79
2023/01/30 07:54:15;;;;;;;34.47;5.75;;;;;;;;;;5019395;28;20046;-77
2023/01/30 07:56:41;;;;;;;35.25;5.00;;;;;;;;;;5023893;28;20056;-76
2023/01/30 07:59:09;;;;;;;27.50;4.45;;;;;;;;;;5016910;28;20045;-77
2023/01/30 08:01:36;;;;;;;23.92;4.18;;;;;;;;;;5017346;28;20022;-78
2023/01/30 08:04:05;;;;;;;30.73;5.97;;;;;;;;;;5021605;28;20046;-78
2023/01/30 08:06:35;;;;;;;38.95;6.45;;;;;;;;;;5016219;28;20033;-77
2023/01/30 08:09:02;;;;;;;39.65;6.18;;;;;;;;;;5023018;28;20373;-78
2023/01/30 08:11:28;;;;;;;37.72;6.07;;;;;;;;;;5005665;28;20027;-78
2023/01/30 08:13:54;;;;;;;31.63;4.82;;;;;;;;;;5018645;28;20038;-78
2023/01/30 08:16:20;;;;;;;48.22;7.55;;;;;;;;;;5021897;28;20034;-79
2023/01/30 08:18:46;;;;;;;33.95;4.63;;;;;;;;;;5022692;28;20030;-76
2023/01/30 08:21:12;;;;;;;34.53;4.75;;;;;;;;;;5024004;28;20038;-77
2023/01/30 08:23:39;;;;;;;26.80;5.82;;;;;;;;;;5024420;28;20022;-78
2023/01/30 08:26:05;;;;;;;28.65;4.57;;;;;;;;;;5021859;28;20101;-78
2023/01/30 08:28:31;;;;;;;28.27;4.35;;;;;;;;;;5023024;28;20038;-79
2023/01/30 08:30:57;;;;;;;40.25;7.78;;;;;;;;;;5022579;28;20430;-76
2023/01/30 08:33:24;;;;;;;37.80;5.13;;;;;;;;;;5024223;28;20053;-76
2023/01/30 08:35:51;;;;;;;35.15;5.07;;;;;;;;;;5027066;28;20029;-80
2023/01/30 08:38:17;;;;;;;33.75;4.70;;;;;;;;;;5021109;28;20041;-78
2023/01/30 08:40:43;;;;;;;38.22;6.53;;;;;;;;;;5006053;28;20044;-78
2023/01/30 08:43:09;;;;;;;44.50;5.43;;;;;;;;;;5011303;28;20034;-76
2023/01/30 08:45:35;;;;;;;34.05;4.40;;;;;;;;;;5024247;28;20068;-76
2023/01/30 08:48:03;;;;;;;34.28;5.68;;;;;;;;;;5016803;28;20034;-79
2023/01/30 08:50:29;;;;;;;31.15;5.15;;;;;;;;;;5018018;28;20054;-77
2023/01/30 08:52:55;;;;;;;29.85;5.07;;;;;;;;;;5023815;28;20034;-78
2023/01/30 08:55:22;;;;;;;26.95;4.55;;;;;;;;;;5023986;28;20420;-75
2023/01/30 08:57:48;;;;;;;22.95;5.25;;;;;;;;;;5021942;28;20010;-77
2023/01/30 09:00:15;;;;;;;27.30;4.22;;;;;;;;;;5024613;28;20036;-80
2023/01/30 09:02:41;;;;;;;34.80;5.68;;;;;;;;;;5022936;28;20089;-80
2023/01/30 09:05:09;;;;;;;29.00;4.57;;;;;;;;;;5022397;28;20041;-76
2023/01/30 09:07:35;;;;;;;35.97;4.80;;;;;;;;;;5019646;28;20133;-75
2023/01/30 09:10:02;;;;;;;35.70;4.93;;;;;;;;;;5022851;28;20026;-79
2023/01/30 09:12:28;;;;;;;39.35;5.30;;;;;;;;;;5023288;28;20006;-78
2023/01/30 09:14:56;;;;;;;37.15;5.13;;;;;;;;;;5019753;28;20425;-78
2023/01/30 09:17:23;;;;;;;38.15;5.68;;;;;;;;;;5016844;28;20057;-78
2023/01/30 09:19:49;;;;;;;27.17;4.18;;;;;;;;;;5018316;28;20487;-78
2023/01/30 09:22:16;;;;;;;32.25;5.78;;;;;;;;;;5024935;28;20029;-78
2023/01/30 09:24:42;;;;;;;30.85;5.50;;;;;;;;;;5016583;28;20078;-77
2023/01/30 09:27:08;;;;;;;25.10;4.57;;;;;;;;;;5006028;28;20029;-77
2023/01/30 09:29:34;;;;;;;30.38;4.50;;;;;;;;;;5021095;28;20411;-79
2023/01/30 09:32:00;;;;;;;29.88;5.38;;;;;;;;;;5003507;28;20030;-77
2023/01/30 09:34:27;;;;;;;28.17;4.68;;;;;;;;;;5017829;28;20034;-78
2023/01/30 09:36:59;;;;;;;32.03;5.00;;;;;;;;;;5019452;28;20459;-78
2023/01/30 09:39:26;;;;;;;27.02;4.43;;;;;;;;;;5016597;28;20136;-79
2023/01/30 09:41:55;;;;;;;36.50;5.05;;;;;;;;;;5016340;28;20037;-78
2023/01/30 09:44:40;;;;;;;32.75;4.63;;;;;;;;;;5017268;28;20124;-78
2023/01/30 09:47:34;;;;;;;24.70;4.93;;;;;;;;;;5009723;28;20050;-78
2023/01/30 09:50:01;;;;;;;25.85;4.50;;;;;;;;;;4998038;28;20136;-77
2023/01/30 09:52:30;;;;;;;26.25;4.28;;;;;;;;;;5000763;28;20446;-79
2023/01/30 09:55:23;;;;;;;33.72;4.90;;;;;;;;;;5009821;28;20046;-78
2023/01/30 09:57:50;;;;;;;29.60;5.03;;;;;;;;;;4994399;28;20090;-79
2023/01/30 10:00:29;;;;;;;32.20;4.78;;;;;;;;;;5013016;28;20053;-77
2023/01/30 10:03:10;;;;;;;32.42;5.32;;;;;;;;;;5007091;28;20029;-79
2023/01/30 10:05:57;;;;;;;27.55;5.22;;;;;;;;;;5012395;28;20037;-79
2023/01/30 10:08:42;;;;;;;40.50;5.88;;;;;;;;;;5010937;28;20068;-79
2023/01/30 10:11:11;;;;;;;42.72;4.85;;;;;;;;;;5011877;28;20037;-79
2023/01/30 10:13:53;;;;;;;25.40;4.63;;;;;;;;;;5009247;28;20532;-78
2023/01/30 10:16:33;;;;;;;40.58;4.68;;;;;;;;;;5001870;28;20125;-77
2023/01/30 10:19:09;;;;;;;30.23;4.25;;;;;;;;;;5001208;28;20032;-78
2023/01/30 10:21:35;;;;;;;24.63;4.05;;;;;;;;;;5009421;28;20110;-78
2023/01/30 10:24:08;;;;;;;31.65;4.75;;;;;;;;;;5011057;28;20448;-78
2023/01/30 10:26:34;;;;;;;30.50;6.07;;;;;;;;;;5010652;28;20084;-79
2023/01/30 10:29:23;;;;;;;30.58;6.25;;;;;;;;;;5005141;28;20223;-78
2023/01/30 10:31:53;;;;;;;32.90;4.88;;;;;;;;;;5001394;28;20041;-78
2023/01/30 10:34:22;;;;;;;31.23;5.28;;;;;;;;;;5006348;28;20057;-78
2023/01/30 10:37:08;;;;;;;25.30;4.97;;;;;;;;;;5006659;28;20112;-78
2023/01/30 10:39:52;;;;;;;37.10;5.65;;;;;;;;;;5007272;28;20057;-78
2023/01/30 10:42:21;;;;;;;33.58;4.20;;;;;;;;;;5008006;28;20092;-77
2023/01/30 10:44:47;;;;;;;37.38;4.72;;;;;;;;;;5008904;28;20038;-79
2023/01/30 10:47:31;;;;;;;30.63;6.10;;;;;;;;;;5010122;28;20050;-78
2023/01/30 10:50:02;;;;;;;29.95;4.70;;;;;;;;;;5004154;28;20117;-78
2023/01/30 10:52:46;;;;;;;40.60;6.50;;;;;;;;;;4991055;28;20085;-79
2023/01/30 10:55:22;;;;;;;35.42;5.22;;;;;;;;;;5002929;28;20026;-77
2023/01/30 10:57:51;;;;;;;34.53;5.40;;;;;;;;;;5007938;28;20030;-79
2023/01/30 11:00:38;;;;;;;39.47;5.47;;;;;;;;;;5005673;28;20061;-79
2023/01/30 11:03:23;;;;;;;41.95;5.97;;;;;;;;;;5005650;28;20394;-79
2023/01/30 11:05:53;;;;;;;35.45;5.13;;;;;;;;;;4994598;28;20022;-79
2023/01/30 11:08:30;;;;;;;41.13;5.97;;;;;;;;;;5008562;28;20112;-78
2023/01/30 11:10:57;;;;;;;36.45;5.40;;;;;;;;;;5005619;28;20061;-79
2023/01/30 11:13:29;;;;;;;41.10;5.95;;;;;;;;;;5009674;28;20406;-77
2023/01/30 11:15:57;;;;;;;34.38;5.35;;;;;;;;;;5008282;28;20517;-79
2023/01/30 11:18:24;;;;;;;40.45;6.00;;;;;;;;;;5008985;28;20042;-77
2023/01/30 11:20:56;;;;;;;36.25;6.90;;;;;;;;;;5009403;28;20034;-80
2023/01/30 11:23:25;;;;;;;30.48;4.43;;;;;;;;;;5007366;28;20073;-80
2023/01/30 11:25:55;;;;;;;29.58;4.70;;;;;;;;;;5008297;28;20034;-77
2023/01/30 11:28:22;;;;;;;35.17;5.25;;;;;;;;;;5009450;28;20025;-78
2023/01/30 11:30:57;;;;;;;38.95;6.18;;;;;;;;;;5025134;28;20076;-78
2023/01/30 11:33:30;;;;;;;43.25;6.60;;;;;;;;;;5008567;28;20340;-80
2023/01/30 11:36:04;;;;;;;37.45;5.82;;;;;;;;;;5006468;28;20045;-79
2023/01/30 11:38:32;;;;;;;38.00;5.22;;;;;;;;;;5004877;28;20034;-79
2023/01/30 11:41:07;;;;;;;35.85;5.10;;;;;;;;;;5008221;28;20034;-79
2023/01/30 11:43:35;;;;;;;33.97;4.63;;;;;;;;;;5004499;28;20045;-79
2023/01/30 11:46:05;;;;;;;33.85;5.72;;;;;;;;;;4989534;28;20050;-79
2023/01/30 11:48:32;;;;;;;27.23;4.85;;;;;;;;;;5003040;28;20026;-80
2023/01/30 11:51:01;;;;;;;41.55;6.00;;;;;;;;;;5006010;28;20045;-79
2023/01/30 11:53:37;;;;;;;31.42;4.50;;;;;;;;;;5008069;28;20022;-79
2023/01/30 11:56:09;;;;;;;39.63;6.50;;;;;;;;;;5007438;28;20458;-79
2023/01/30 11:58:37;;;;;;;35.22;7.38;;;;;;;;;;5008248;28;20038;-77
2023/01/30 12:01:04;;;;;;;45.17;6.38;;;;;;;;;;5007322;28;20034;-79
2023/01/30 12:03:32;;;;;;;49.83;6.38;;;;;;;;;;5009997;28;20033;-79
2023/01/30 12:05:58;;;;;;;30.48;6.18;;;;;;;;;;5012058;28;20053;-79
2023/01/30 12:08:38;;;;;;;36.72;5.80;;;;;;;;;;4991744;28;20459;-79
2023/01/30 12:11:06;;;;;;;41.40;6.32;;;;;;;;;;5010515;28;20034;-78
2023/01/30 12:13:46;;;;;;;37.38;5.95;;;;;;;;;;5012474;28;20053;-76
2023/01/30 12:16:34;;;;;;;31.63;5.18;;;;;;;;;;5011326;28;20029;-79
2023/01/30 12:19:19;;;;;;;28.17;5.63;;;;;;;;;;5011347;28;20030;-79
2023/01/30 12:21:57;;;;;;;29.00;5.40;;;;;;;;;;5012190;28;20124;-80
2023/01/30 12:24:38;;;;;;;33.50;6.32;;;;;;;;;;5002628;28;20121;-79
2023/01/30 12:27:09;;;;;;;36.10;5.68;;;;;;;;;;5012695;28;20030;-78
2023/01/30 12:29:37;;;;;;;35.67;4.85;;;;;;;;;;5028201;28;20388;-78
2023/01/30 12:32:04;;;;;;;41.45;5.32;;;;;;;;;;5012405;28;20025;-79
2023/01/30 12:34:30;;;;;;;33.45;5.78;;;;;;;;;;5011894;28;20048;-78
2023/01/30 12:37:08;;;;;;;34.65;5.60;;;;;;;;;;5006314;28;20034;-78
2023/01/30 12:40:07;;;;;;;36.42;5.53;;;;;;;;;;5001868;28;20038;-78
2023/01/30 12:42:33;;;;;;;37.55;6.05;;;;;;;;;;4961121;28;20135;-77
2023/01/30 12:45:18;;;;;;;37.45;6.68;;;;;;;;;;5010699;28;20050;-80
2023/01/30 12:48:04;;;;;;;36.72;5.90;;;;;;;;;;5006446;28;20081;-80
2023/01/30 12:50:50;;;;;;;32.63;5.90;;;;;;;;;;4979796;28;20081;-80
2023/01/30 12:53:17;;;;;;;31.70;5.60;;;;;;;;;;5008672;28;20053;-79
2023/01/30 12:55:43;;;;;;;34.55;5.05;;;;;;;;;;5012244;28;20109;-80
2023/01/30 12:58:26;;;;;;;35.20;5.80;;;;;;;;;;5011178;28;20018;-79
2023/01/30 13:00:56;;;;;;;31.02;5.25;;;;;;;;;;4992999;28;20130;-80
2023/01/30 13:03:25;;;;;;;45.15;5.93;;;;;;;;;;5001810;28;20298;-79
2023/01/30 13:06:02;;;;;;;35.22;6.40;;;;;;;;;;5010396;28;20022;-79
2023/01/30 13:08:40;;;;;;;32.63;5.15;;;;;;;;;;5002842;28;20030;-80
2023/01/30 13:11:21;;;;;;;36.03;5.85;;;;;;;;;;5010758;28;20050;-80
2023/01/30 13:13:47;;;;;;;;;;;;;;;;;;5008035;28;20049;-79
2023/01/30 13:16:19;;;;;;;36.42;6.65;;;;;;;;;;5007809;28;19906;-81
2023/01/30 13:18:52;;;;;;;40.08;6.18;;;;;;;;;;5001181;28;20065;-80
2023/01/30 13:28:45;;;;;;;39.05;5.45;;;;;;;;;;5002792;23;20050;-79
2023/01/30 13:31:13;;;;;;;31.35;5.95;;;;;;;;;;4991032;28;20034;-79
2023/01/30 13:33:42;;;;;;;44.22;6.63;;;;;;;;;;4990561;28;20130;-79
2023/01/30 13:36:08;;;;;;;38.13;6.07;;;;;;;;;;4990226;28;20034;-78
2023/01/30 13:38:35;;;;;;;33.30;5.35;;;;;;;;;;4988040;28;20072;-79
2023/01/30 13:41:06;;;;;;;42.70;6.30;;;;;;;;;;4989427;28;20105;-79
2023/01/30 13:43:35;;;;;;;33.85;5.47;;;;;;;;;;4989832;28;20064;-80
2023/01/30 13:46:08;;;;;;;42.65;7.00;;;;;;;;;;4990593;28;20037;-78
2023/01/30 13:48:37;;;;;;;44.42;7.45;;;;;;;;;;4993741;28;20037;-80
2023/01/30 13:51:22;;;;;;;33.53;6.28;;;;;;;;;;4994705;28;20526;-80
2023/01/30 13:53:53;;;;;;;41.15;5.50;;;;;;;;;;4992636;28;20034;-78
2023/01/30 13:56:30;;;;;;;35.08;5.45;;;;;;;;;;4990971;28;20100;-80
2023/01/30 13:59:02;;;;;;;29.40;5.15;;;;;;;;;;4978310;28;20022;-79
2023/01/30 14:01:48;;;;;;;37.92;5.93;;;;;;;;;;5000448;28;20045;-79
2023/01/30 14:04:43;;;;;;;37.22;5.57;;;;;;;;;;4994747;28;20019;-80
2023/01/30 14:07:28;;;;;;;33.45;5.20;;;;;;;;;;4981097;28;20042;-79
2023/01/30 14:10:03;;;;;;;41.42;5.93;;;;;;;;;;5000181;28;20031;-80
2023/01/30 14:12:33;;;;;;;36.15;5.43;;;;;;;;;;5000589;28;20038;-78
2023/01/30 14:15:05;;;;;;;30.88;5.00;;;;;;;;;;5002061;28;20041;-79
2023/01/30 14:17:32;;;;;;;37.13;5.38;;;;;;;;;;4984503;28;20038;-77
2023/01/30 14:20:04;;;;;;;52.83;6.55;;;;;;;;;;5002417;28;20074;-77
2023/01/30 14:22:33;;;;;;;38.28;6.70;;;;;;;;;;5000298;28;20064;-78
2023/01/30 14:25:18;;;;;;;31.00;5.68;;;;;;;;;;5000689;28;20146;-77
2023/01/30 14:27:44;;;;;;;31.40;5.35;;;;;;;;;;4999136;28;21347;-78
2023/01/30 14:30:29;;;;;;;35.38;4.82;;;;;;;;;;5005015;28;20035;-79
2023/01/30 14:32:55;;;;;;;34.83;5.50;;;;;;;;;;5003720;28;20023;-77
2023/01/30 14:35:23;;;;;;;34.42;4.90;;;;;;;;;;5000637;28;20101;-78
2023/01/30 14:37:50;;;;;;;26.85;4.32;;;;;;;;;;4996884;28;20037;-80
2023/01/30 14:40:22;;;;;;;37.28;6.50;;;;;;;;;;5000544;28;20027;-79
2023/01/30 14:43:07;;;;;;;34.90;6.22;;;;;;;;;;5001918;28;20030;-80
2023/01/30 14:45:55;;;;;;;41.42;7.07;;;;;;;;;;4998189;28;20050;-79
2023/01/30 14:48:39;;;;;;;34.20;5.70;;;;;;;;;;4992891;28;20049;-80
2023/01/30 14:51:15;;;;;;;37.80;5.80;;;;;;;;;;4997126;28;20030;-79
2023/01/30 14:53:59;;;;;;;36.50;5.93;;;;;;;;;;4997594;28;20125;-78
2023/01/30 14:56:38;;;;;;;38.03;7.15;;;;;;;;;;5008530;28;20708;-78
2023/01/30 14:59:19;;;;;;;34.67;5.22;;;;;;;;;;4991599;28;20085;-81